createdAt,value
2018-01-22T00:00:21.589Z,12.00
2018-01-22T00:01:21.605Z,12.20
2018-01-22T00:02:21.618Z,12.50
2018-01-22T00:03:21.633Z,12.90
2018-01-22T00:04:21.648Z,13.50
2018-01-22T00:05:21.663Z,12.50
2018-01-22T00:06:21.679Z,12.60
2018-01-22T00:07:21.693Z,12.60
2018-01-22T00:08:21.708Z,11.50
2018-01-22T00:09:21.723Z,11.90
2018-01-22T00:10:21.738Z,12.50
2018-01-22T00:11:22.054Z,12.40
2018-01-22T00:12:21.799Z,12.60
2018-01-22T00:13:21.783Z,11.90
2018-01-22T00:14:22.049Z,11.70
2018-01-22T00:15:21.813Z,12.20
2018-01-22T00:16:21.831Z,12.60
2018-01-22T00:17:22.044Z,12.70
2018-01-22T00:18:21.860Z,12.10
2018-01-22T00:19:22.022Z,12.00
2018-01-22T00:20:21.888Z,11.70
2018-01-22T00:21:21.904Z,11.90
2018-01-22T00:22:21.918Z,12.30
2018-01-22T00:23:22.033Z,11.40
2018-01-22T00:24:21.948Z,12.50
2018-01-22T00:25:21.964Z,11.60
2018-01-22T00:26:22.029Z,10.90
2018-01-22T00:27:21.994Z,10.80
2018-01-22T00:28:22.009Z,11.10
2018-01-22T00:29:22.024Z,10.80
2018-01-22T00:30:22.040Z,11.50
2018-01-22T00:31:22.054Z,11.70
2018-01-22T00:32:22.074Z,10.80
2018-01-22T00:33:22.085Z,11.00
2018-01-22T00:34:22.100Z,11.70
2018-01-22T00:35:22.114Z,10.50
2018-01-22T00:36:22.129Z,11.20
2018-01-22T00:37:22.148Z,11.30
2018-01-22T00:38:22.160Z,10.40
2018-01-22T00:39:22.174Z,9.80
2018-01-22T00:40:22.190Z,10.40
2018-01-22T00:41:22.205Z,11.40
2018-01-22T00:42:22.220Z,10.40
2018-01-22T00:43:22.235Z,9.50
2018-01-22T00:44:22.249Z,10.80
2018-01-22T00:45:22.266Z,11.50
2018-01-22T00:46:22.280Z,11.20
2018-01-22T00:47:22.295Z,10.30
2018-01-22T00:48:22.310Z,10.30
2018-01-22T00:49:22.325Z,10.50
2018-01-22T00:50:22.341Z,10.00
2018-01-22T00:51:22.355Z,10.50
2018-01-22T00:52:22.370Z,10.40
2018-01-22T00:53:22.386Z,11.40
2018-01-22T00:54:22.401Z,9.90
2018-01-22T00:55:22.415Z,9.30
2018-01-22T00:56:22.431Z,9.90
2018-01-22T00:57:22.446Z,10.60
2018-01-22T00:58:22.460Z,10.20
2018-01-22T00:59:22.475Z,9.60
2018-01-22T01:00:22.490Z,10.20
2018-01-22T01:01:22.506Z,12.60
2018-01-22T01:02:22.521Z,14.80
2018-01-22T01:03:22.536Z,10.70
2018-01-22T01:04:22.551Z,10.00
2018-01-22T01:05:22.566Z,10.40
2018-01-22T01:06:22.581Z,10.80
2018-01-22T01:07:22.596Z,11.60
2018-01-22T01:08:22.610Z,11.00
2018-01-22T01:09:22.627Z,10.10
2018-01-22T01:10:22.644Z,10.50
2018-01-22T01:11:22.655Z,10.50
2018-01-22T01:12:22.671Z,10.80
2018-01-22T01:13:22.685Z,11.60
2018-01-22T01:14:22.701Z,10.70
2018-01-22T01:15:22.718Z,11.30
2018-01-22T01:16:22.730Z,10.70
2018-01-22T01:17:22.745Z,10.60
2018-01-22T01:18:22.761Z,11.00
2018-01-22T01:19:22.778Z,10.00
2018-01-22T01:20:22.790Z,10.50
2018-01-22T01:21:22.806Z,9.50
2018-01-22T01:22:22.823Z,9.60
2018-01-22T01:23:22.838Z,9.40
2018-01-22T01:24:22.850Z,9.40
2018-01-22T01:25:22.865Z,9.10
2018-01-22T01:26:22.880Z,9.50
2018-01-22T01:27:22.894Z,9.20
2018-01-22T01:28:22.910Z,9.50
2018-01-22T01:29:22.925Z,9.80
2018-01-22T01:30:22.989Z,9.40
2018-01-22T01:31:22.954Z,10.40
2018-01-22T01:32:22.968Z,9.20
2018-01-22T01:33:22.983Z,9.90
2018-01-22T01:34:22.999Z,8.90
2018-01-22T01:35:23.013Z,9.80
2018-01-22T01:36:23.028Z,9.40
2018-01-22T01:37:23.043Z,9.20
2018-01-22T01:38:23.059Z,10.00
2018-01-22T01:39:23.073Z,8.90
2018-01-22T01:40:23.088Z,9.60
2018-01-22T01:41:23.157Z,10.30
2018-01-22T01:42:23.117Z,9.40
2018-01-22T01:43:23.132Z,9.30
2018-01-22T01:44:23.148Z,9.50
2018-01-22T01:45:23.163Z,8.80
2018-01-22T01:46:23.181Z,8.40
2018-01-22T01:47:23.192Z,8.70
2018-01-22T01:48:23.208Z,8.40
2018-01-22T01:49:23.223Z,9.10
2018-01-22T01:50:23.238Z,8.60
2018-01-22T01:51:23.252Z,8.90
2018-01-22T01:52:23.268Z,7.60
2018-01-22T01:53:23.282Z,7.40
2018-01-22T01:54:23.297Z,8.60
2018-01-22T01:55:23.312Z,8.40
2018-01-22T01:56:23.327Z,8.40
2018-01-22T01:57:23.342Z,8.80
2018-01-22T01:58:23.357Z,8.10
2018-01-22T01:59:23.371Z,8.20
2018-01-22T02:00:23.388Z,7.10
2018-01-22T02:01:23.401Z,8.60
2018-01-22T02:02:23.417Z,7.80
2018-01-22T02:03:23.430Z,7.30
2018-01-22T02:04:23.445Z,7.80
2018-01-22T02:05:23.461Z,7.20
2018-01-22T02:06:23.476Z,7.80
2018-01-22T02:07:23.490Z,6.50
2018-01-22T02:08:23.505Z,7.70
2018-01-22T02:09:23.521Z,7.30
2018-01-22T02:10:23.536Z,7.40
2018-01-22T02:11:23.550Z,7.40
2018-01-22T02:12:23.565Z,7.60
2018-01-22T02:13:23.580Z,6.70
2018-01-22T02:14:23.595Z,6.90
2018-01-22T02:15:23.759Z,6.90
2018-01-22T02:16:23.625Z,6.30
2018-01-22T02:17:23.640Z,6.60
2018-01-22T02:18:23.655Z,6.60
2018-01-22T02:19:23.670Z,7.00
2018-01-22T02:20:23.684Z,7.00
2018-01-22T02:21:23.701Z,6.60
2018-01-22T02:22:23.869Z,7.00
2018-01-22T02:23:23.729Z,7.40
2018-01-22T02:24:23.744Z,6.60
2018-01-22T02:25:23.759Z,6.50
2018-01-22T02:26:23.774Z,6.70
2018-01-22T02:27:23.788Z,7.80
2018-01-22T02:28:23.804Z,7.20
2018-01-22T02:29:23.819Z,6.00
2018-01-22T02:30:23.835Z,6.30
2018-01-22T02:31:23.849Z,7.20
2018-01-22T02:32:23.864Z,6.10
2018-01-22T02:33:23.879Z,7.00
2018-01-22T02:34:23.894Z,6.90
2018-01-22T02:35:23.908Z,6.70
2018-01-22T02:36:23.924Z,7.10
2018-01-22T02:37:23.939Z,6.70
2018-01-22T02:38:23.954Z,6.70
2018-01-22T02:39:23.968Z,6.60
2018-01-22T02:40:23.983Z,6.50
2018-01-22T02:41:23.999Z,6.80
2018-01-22T02:42:24.014Z,7.20
2018-01-22T02:43:24.028Z,6.70
2018-01-22T02:44:24.043Z,6.80
2018-01-22T02:45:24.058Z,6.10
2018-01-22T02:46:24.074Z,7.40
2018-01-22T02:47:24.088Z,6.90
2018-01-22T02:48:24.253Z,6.80
2018-01-22T02:49:24.118Z,6.80
2018-01-22T02:50:24.134Z,6.90
2018-01-22T02:51:24.148Z,6.80
2018-01-22T02:52:24.162Z,6.40
2018-01-22T02:53:24.180Z,6.90
2018-01-22T02:54:24.193Z,7.10
2018-01-22T02:55:24.207Z,7.90
2018-01-22T02:56:24.223Z,7.50
2018-01-22T02:57:24.237Z,7.20
2018-01-22T02:58:24.252Z,6.70
2018-01-22T02:59:24.266Z,7.20
2018-01-22T03:00:24.281Z,7.20
2018-01-22T03:01:24.296Z,7.90
2018-01-22T03:02:24.312Z,7.10
2018-01-22T03:03:24.325Z,7.30
2018-01-22T03:04:24.340Z,7.20
2018-01-22T03:05:24.356Z,8.00
2018-01-22T03:06:24.371Z,7.20
2018-01-22T03:07:24.385Z,7.40
2018-01-22T03:08:24.399Z,7.20
2018-01-22T03:09:24.416Z,7.60
2018-01-22T03:10:24.430Z,6.20
2018-01-22T03:11:24.445Z,6.70
2018-01-22T03:12:24.460Z,8.20
2018-01-22T03:13:24.475Z,8.10
2018-01-22T03:14:24.490Z,7.50
2018-01-22T03:15:24.504Z,7.10
2018-01-22T03:16:24.519Z,7.10
2018-01-22T03:17:24.534Z,6.90
2018-01-22T03:18:24.548Z,7.50
2018-01-22T03:19:24.563Z,7.40
2018-01-22T03:20:24.579Z,7.70
2018-01-22T03:21:24.594Z,6.90
2018-01-22T03:22:24.609Z,7.20
2018-01-22T03:23:24.623Z,7.50
2018-01-22T03:24:24.639Z,7.40
2018-01-22T03:25:24.653Z,7.50
2018-01-22T03:26:24.668Z,6.70
2018-01-22T03:27:24.721Z,7.00
2018-01-22T03:28:24.698Z,6.90
2018-01-22T03:29:24.712Z,7.50
2018-01-22T03:30:24.729Z,6.90
2018-01-22T03:31:24.742Z,6.60
2018-01-22T03:32:24.757Z,6.90
2018-01-22T03:33:24.772Z,6.70
2018-01-22T03:34:24.787Z,7.30
2018-01-22T03:35:24.805Z,7.00
2018-01-22T03:36:24.821Z,7.20
2018-01-22T03:37:24.832Z,6.60
2018-01-22T03:38:24.847Z,6.40
2018-01-22T03:39:24.861Z,6.90
2018-01-22T03:40:24.876Z,7.30
2018-01-22T03:41:24.891Z,6.80
2018-01-22T03:42:24.906Z,6.70
2018-01-22T03:43:24.921Z,7.00
2018-01-22T03:44:24.936Z,6.10
2018-01-22T03:45:24.951Z,6.10
2018-01-22T03:46:24.965Z,6.30
2018-01-22T03:47:24.980Z,6.10
2018-01-22T03:48:24.995Z,6.60
2018-01-22T03:49:25.011Z,6.60
2018-01-22T03:50:25.026Z,6.20
2018-01-22T03:51:25.040Z,6.60
2018-01-22T03:52:25.055Z,5.70
2018-01-22T03:53:25.070Z,6.20
2018-01-22T03:54:25.085Z,6.10
2018-01-22T03:55:25.099Z,6.30
2018-01-22T03:56:25.114Z,6.30
2018-01-22T03:57:25.129Z,6.50
2018-01-22T03:58:25.144Z,6.40
2018-01-22T03:59:25.159Z,6.50
2018-01-22T04:00:25.174Z,7.00
2018-01-22T04:01:25.189Z,6.60
2018-01-22T04:02:25.203Z,6.10
2018-01-22T04:03:25.218Z,6.30
2018-01-22T04:04:25.233Z,6.30
2018-01-22T04:05:25.249Z,6.10
2018-01-22T04:06:25.263Z,6.20
2018-01-22T04:07:25.277Z,5.80
2018-01-22T04:08:25.292Z,6.60
2018-01-22T04:09:25.307Z,6.20
2018-01-22T04:10:25.322Z,6.60
2018-01-22T04:11:25.336Z,6.60
2018-01-22T04:12:25.352Z,6.40
2018-01-22T04:13:25.367Z,6.50
2018-01-22T04:14:25.531Z,6.00
2018-01-22T04:15:25.395Z,6.90
2018-01-22T04:16:25.510Z,7.00
2018-01-22T04:17:25.463Z,6.50
2018-01-22T04:18:25.440Z,6.90
2018-01-22T04:19:25.454Z,6.90
2018-01-22T04:20:25.468Z,6.80
2018-01-22T04:21:25.484Z,7.30
2018-01-22T04:22:25.507Z,7.30
2018-01-22T04:23:25.513Z,7.20
2018-01-22T04:24:25.528Z,7.20
2018-01-22T04:25:25.543Z,7.60
2018-01-22T04:26:25.558Z,7.30
2018-01-22T04:27:25.572Z,8.10
2018-01-22T04:28:25.587Z,7.80
2018-01-22T04:29:25.601Z,7.00
2018-01-22T04:30:25.617Z,7.30
2018-01-22T04:31:25.631Z,7.20
2018-01-22T04:32:25.646Z,7.90
2018-01-22T04:33:25.661Z,8.00
2018-01-22T04:34:25.676Z,8.20
2018-01-22T04:35:25.690Z,7.50
2018-01-22T04:36:25.705Z,7.80
2018-01-22T04:37:25.871Z,8.50
2018-01-22T04:38:25.736Z,7.80
2018-01-22T04:39:25.749Z,8.10
2018-01-22T04:40:25.765Z,8.40
2018-01-22T04:41:25.780Z,8.20
2018-01-22T04:42:25.795Z,8.00
2018-01-22T04:43:25.809Z,8.70
2018-01-22T04:44:25.825Z,8.80
2018-01-22T04:45:25.840Z,8.40
2018-01-22T04:46:25.854Z,8.20
2018-01-22T04:47:25.869Z,8.70
2018-01-22T04:48:25.885Z,9.00
2018-01-22T04:49:25.898Z,9.00
2018-01-22T04:50:25.916Z,8.10
2018-01-22T04:51:25.928Z,8.50
2018-01-22T04:52:25.944Z,9.20
2018-01-22T04:53:25.959Z,9.50
2018-01-22T04:54:25.973Z,8.50
2018-01-22T04:55:25.988Z,9.40
2018-01-22T04:56:26.002Z,9.00
2018-01-22T04:57:26.017Z,9.70
2018-01-22T04:58:26.033Z,10.00
2018-01-22T04:59:26.046Z,9.50
2018-01-22T05:00:26.062Z,9.30
2018-01-22T05:01:26.077Z,9.50
2018-01-22T05:02:26.092Z,9.30
2018-01-22T05:03:26.106Z,9.10
2018-01-22T05:04:26.121Z,9.30
2018-01-22T05:05:26.144Z,10.40
2018-01-22T05:06:26.152Z,9.70
2018-01-22T05:07:26.167Z,9.70
2018-01-22T05:08:26.184Z,9.30
2018-01-22T05:09:26.195Z,9.70
2018-01-22T05:10:26.211Z,10.50
2018-01-22T05:11:26.225Z,9.10
2018-01-22T05:12:26.240Z,10.40
2018-01-22T05:13:26.255Z,11.10
2018-01-22T05:14:26.270Z,10.50
2018-01-22T05:15:26.284Z,10.40
2018-01-22T05:16:26.299Z,10.40
2018-01-22T05:17:26.314Z,10.20
2018-01-22T05:18:26.330Z,10.30
2018-01-22T05:19:26.344Z,9.90
2018-01-22T05:20:26.359Z,10.30
2018-01-22T05:21:26.374Z,10.80
2018-01-22T05:22:26.388Z,10.50
2018-01-22T05:23:26.404Z,10.10
2018-01-22T05:24:26.424Z,9.40
2018-01-22T05:25:26.435Z,10.40
2018-01-22T05:26:26.498Z,10.90
2018-01-22T05:27:26.462Z,10.40
2018-01-22T05:28:26.477Z,10.40
2018-01-22T05:29:26.491Z,10.60
2018-01-22T05:30:26.508Z,11.20
2018-01-22T05:31:26.523Z,9.80
2018-01-22T05:32:26.536Z,11.10
2018-01-22T05:33:26.551Z,9.60
2018-01-22T05:34:26.566Z,10.60
2018-01-22T05:35:26.580Z,10.50
2018-01-22T05:36:26.595Z,10.90
2018-01-22T05:37:26.611Z,10.00
2018-01-22T05:38:26.626Z,10.10
2018-01-22T05:39:26.640Z,10.30
2018-01-22T05:40:26.705Z,11.00
2018-01-22T05:41:26.671Z,10.10
2018-01-22T05:42:26.685Z,9.90
2018-01-22T05:43:26.699Z,10.80
2018-01-22T05:44:26.714Z,11.10
2018-01-22T05:45:26.729Z,11.50
2018-01-22T05:46:26.750Z,11.50
2018-01-22T05:47:26.759Z,10.50
2018-01-22T05:48:26.774Z,11.20
2018-01-22T05:49:26.788Z,12.00
2018-01-22T05:50:26.804Z,11.10
2018-01-22T05:51:26.818Z,12.00
2018-01-22T05:52:26.833Z,11.60
2018-01-22T05:53:26.848Z,12.80
2018-01-22T05:54:26.863Z,12.30
2018-01-22T05:55:26.878Z,12.20
2018-01-22T05:56:26.893Z,12.60
2018-01-22T05:57:26.907Z,13.30
2018-01-22T05:58:26.922Z,12.50
2018-01-22T05:59:26.937Z,12.50
2018-01-22T06:00:26.952Z,12.90
2018-01-22T06:01:26.966Z,13.00
2018-01-22T06:02:26.982Z,13.00
2018-01-22T06:03:26.996Z,13.30
2018-01-22T06:04:27.011Z,12.00
2018-01-22T06:05:27.026Z,13.00
2018-01-22T06:06:27.042Z,12.50
2018-01-22T06:07:27.056Z,12.90
2018-01-22T06:08:27.071Z,12.50
2018-01-22T06:09:27.086Z,13.20
2018-01-22T06:10:27.102Z,12.70
2018-01-22T06:11:27.115Z,13.20
2018-01-22T06:12:27.130Z,13.30
2018-01-22T06:13:27.144Z,13.40
2018-01-22T06:14:27.161Z,13.30
2018-01-22T06:15:27.211Z,12.80
2018-01-22T06:16:27.190Z,12.80
2018-01-22T06:17:27.205Z,12.90
2018-01-22T06:18:27.221Z,12.70
2018-01-22T06:19:27.237Z,13.90
2018-01-22T06:20:27.249Z,13.40
2018-01-22T06:21:27.266Z,13.30
2018-01-22T06:22:27.281Z,12.50
2018-01-22T06:23:27.295Z,14.10
2018-01-22T06:24:27.310Z,13.90
2018-01-22T06:25:27.475Z,13.90
2018-01-22T06:26:27.340Z,13.10
2018-01-22T06:27:27.355Z,13.40
2018-01-22T06:28:27.372Z,12.30
2018-01-22T06:29:27.385Z,13.30
2018-01-22T06:30:27.401Z,13.60
2018-01-22T06:31:27.415Z,13.50
2018-01-22T06:32:27.430Z,13.70
2018-01-22T06:33:27.446Z,13.40
2018-01-22T06:34:27.461Z,13.60
2018-01-22T06:35:27.477Z,13.60
2018-01-22T06:36:27.490Z,13.60
2018-01-22T06:37:27.505Z,13.90
2018-01-22T06:38:27.521Z,13.00
2018-01-22T06:39:27.535Z,14.00
2018-01-22T06:40:27.551Z,14.80
2018-01-22T06:41:27.566Z,14.30
2018-01-22T06:42:27.582Z,14.60
2018-01-22T06:43:27.595Z,16.40
2018-01-22T06:44:27.611Z,14.50
2018-01-22T06:45:27.626Z,14.80
2018-01-22T06:46:27.642Z,15.30
2018-01-22T06:47:27.656Z,15.30
2018-01-22T06:48:27.671Z,14.10
2018-01-22T06:49:27.709Z,15.20
2018-01-22T06:50:27.702Z,15.10
2018-01-22T06:51:27.766Z,15.50
2018-01-22T06:52:27.731Z,15.00
2018-01-22T06:53:27.747Z,20.10
2018-01-22T06:54:27.763Z,18.20
2018-01-22T06:55:27.777Z,16.40
2018-01-22T06:56:27.792Z,16.80
2018-01-22T06:57:27.808Z,16.40
2018-01-22T06:58:27.974Z,15.90
2018-01-22T06:59:27.838Z,16.70
2018-01-22T07:00:27.853Z,16.80
2018-01-22T07:01:27.868Z,16.80
2018-01-22T07:02:27.884Z,17.70
2018-01-22T07:03:27.898Z,17.90
2018-01-22T07:04:27.914Z,18.50
2018-01-22T07:05:27.930Z,18.40
2018-01-22T07:06:27.945Z,18.90
2018-01-22T07:07:27.959Z,17.90
2018-01-22T07:08:27.975Z,20.00
2018-01-22T07:09:27.991Z,19.60
2018-01-22T07:10:28.156Z,18.60
2018-01-22T07:11:28.024Z,18.20
2018-01-22T07:12:28.036Z,18.30
2018-01-22T07:13:28.057Z,19.10
2018-01-22T07:14:28.067Z,18.40
2018-01-22T07:15:28.081Z,20.70
2018-01-22T07:16:28.097Z,19.30
2018-01-22T07:17:28.113Z,21.50
2018-01-22T07:18:28.128Z,20.60
2018-01-22T07:19:28.143Z,21.60
2018-01-22T07:20:28.158Z,20.10
2018-01-22T07:21:28.174Z,22.00
2018-01-22T07:22:28.189Z,20.90
2018-01-22T07:23:28.204Z,19.90
2018-01-22T07:24:28.219Z,18.60
2018-01-22T07:25:28.236Z,20.40
2018-01-22T07:26:28.455Z,20.60
2018-01-22T07:27:28.265Z,20.60
2018-01-22T07:28:28.280Z,20.60
2018-01-22T07:29:28.297Z,21.20
2018-01-22T07:30:28.312Z,20.20
2018-01-22T07:31:28.327Z,21.50
2018-01-22T07:32:28.343Z,20.70
2018-01-22T07:33:28.358Z,20.80
2018-01-22T07:34:28.374Z,20.20
2018-01-22T07:35:28.389Z,20.60
2018-01-22T07:36:28.403Z,20.60
2018-01-22T07:37:28.420Z,20.90
2018-01-22T07:38:28.435Z,20.30
2018-01-22T07:39:28.450Z,26.90
2018-01-22T07:40:28.466Z,29.90
2018-01-22T07:41:28.481Z,31.10
2018-01-22T07:42:28.497Z,31.20
2018-01-22T07:43:28.515Z,61.90
2018-01-22T07:44:28.528Z,64.50
2018-01-22T07:45:28.544Z,39.40
2018-01-22T07:46:28.559Z,20.00
2018-01-22T07:47:28.574Z,20.20
2018-01-22T07:48:28.590Z,20.30
2018-01-22T07:49:28.605Z,20.30
2018-01-22T07:50:28.621Z,20.70
2018-01-22T07:51:28.636Z,20.90
2018-01-22T07:52:28.651Z,20.30
2018-01-22T07:53:28.669Z,19.80
2018-01-22T07:54:28.685Z,20.50
2018-01-22T07:55:28.697Z,19.70
2018-01-22T07:56:28.717Z,21.00
2018-01-22T07:57:28.729Z,21.00
2018-01-22T07:58:28.746Z,20.80
2018-01-22T07:59:28.760Z,22.10
2018-01-22T08:00:28.778Z,21.30
2018-01-22T08:01:28.792Z,20.20
2018-01-22T08:02:28.807Z,19.70
2018-01-22T08:03:28.822Z,21.40
2018-01-22T08:04:28.838Z,20.10
2018-01-22T08:05:28.853Z,20.50
2018-01-22T08:06:28.870Z,21.50
2018-01-22T08:07:28.884Z,21.80
2018-01-22T08:08:28.901Z,22.40
2018-01-22T08:09:28.916Z,22.60
2018-01-22T08:10:28.932Z,23.10
2018-01-22T08:11:28.949Z,23.30
2018-01-22T08:12:28.962Z,20.00
2018-01-22T08:13:28.978Z,21.90
2018-01-22T08:14:28.996Z,19.80
2018-01-22T08:15:29.009Z,20.40
2018-01-22T08:16:29.025Z,19.70
2018-01-22T08:17:29.041Z,20.50
2018-01-22T08:18:29.057Z,19.40
2018-01-22T08:19:29.072Z,19.90
2018-01-22T08:20:29.088Z,20.60
2018-01-22T08:21:29.104Z,21.50
2018-01-22T08:22:29.120Z,20.90
2018-01-22T08:23:29.135Z,19.90
2018-01-22T08:24:29.151Z,20.10
2018-01-22T08:25:29.169Z,19.20
2018-01-22T08:26:29.195Z,20.50
2018-01-22T08:27:29.197Z,20.00
2018-01-22T08:28:29.214Z,21.90
2018-01-22T08:29:29.230Z,21.20
2018-01-22T08:30:29.247Z,21.40
2018-01-22T08:31:29.261Z,20.40
2018-01-22T08:32:29.277Z,19.20
2018-01-22T08:33:29.294Z,21.00
2018-01-22T08:34:29.335Z,20.40
2018-01-22T08:35:29.324Z,21.00
2018-01-22T08:36:29.346Z,20.50
2018-01-22T08:37:29.356Z,21.20
2018-01-22T08:38:29.372Z,21.80
2018-01-22T08:39:29.388Z,21.90
2018-01-22T08:40:29.403Z,22.90
2018-01-22T08:41:29.420Z,23.70
2018-01-22T08:42:29.438Z,22.30
2018-01-22T08:43:29.451Z,24.00
2018-01-22T08:44:29.467Z,24.30
2018-01-22T08:45:29.483Z,25.50
2018-01-22T08:46:29.499Z,25.50
2018-01-22T08:47:29.514Z,25.30
2018-01-22T08:48:29.530Z,24.80
2018-01-22T08:49:29.546Z,25.90
2018-01-22T08:50:29.568Z,26.50
2018-01-22T08:51:29.578Z,25.90
2018-01-22T08:52:29.594Z,26.70
2018-01-22T08:53:29.610Z,26.90
2018-01-22T08:54:29.626Z,26.90
2018-01-22T08:55:29.641Z,27.80
2018-01-22T08:56:29.657Z,26.90
2018-01-22T08:57:29.673Z,28.90
2018-01-22T08:58:29.690Z,30.00
2018-01-22T08:59:29.705Z,28.80
2018-01-22T09:00:29.720Z,29.30
2018-01-22T09:01:29.737Z,30.80
2018-01-22T09:02:29.754Z,30.30
2018-01-22T09:03:29.768Z,30.10
2018-01-22T09:04:29.784Z,31.20
2018-01-22T09:05:29.800Z,30.00
2018-01-22T09:06:29.817Z,31.80
2018-01-22T09:07:29.833Z,32.80
2018-01-22T09:08:29.849Z,31.20
2018-01-22T09:09:29.865Z,30.00
2018-01-22T09:10:29.881Z,30.30
2018-01-22T09:11:29.898Z,31.30
2018-01-22T09:12:29.916Z,31.10
2018-01-22T09:13:29.931Z,31.90
2018-01-22T09:14:29.945Z,30.90
2018-01-22T09:15:29.961Z,32.20
2018-01-22T09:16:29.977Z,32.00
2018-01-22T09:17:29.994Z,31.70
2018-01-22T09:18:30.011Z,31.20
2018-01-22T09:19:30.026Z,30.60
2018-01-22T09:20:30.042Z,31.20
2018-01-22T09:21:30.059Z,31.20
2018-01-22T09:22:30.075Z,31.80
2018-01-22T09:23:30.090Z,31.70
2018-01-22T09:24:30.108Z,32.60
2018-01-22T09:25:30.124Z,32.20
2018-01-22T09:26:30.139Z,34.00
2018-01-22T09:27:30.155Z,33.40
2018-01-22T09:28:30.172Z,32.10
2018-01-22T09:29:30.188Z,30.80
2018-01-22T09:30:30.205Z,32.70
2018-01-22T09:31:30.220Z,34.90
2018-01-22T09:32:30.237Z,33.20
2018-01-22T09:33:30.258Z,32.50
2018-01-22T09:34:30.270Z,33.00
2018-01-22T09:35:30.287Z,35.10
2018-01-22T09:36:30.303Z,35.10
2018-01-22T09:37:30.319Z,33.80
2018-01-22T09:38:30.336Z,33.00
2018-01-22T09:39:30.351Z,30.00
2018-01-22T09:40:30.368Z,29.90
2018-01-22T09:41:30.535Z,31.10
2018-01-22T09:42:30.402Z,31.40
2018-01-22T09:43:30.417Z,30.30
2018-01-22T09:44:30.434Z,29.00
2018-01-22T09:45:30.450Z,26.70
2018-01-22T09:46:30.473Z,27.70
2018-01-22T09:47:30.483Z,26.80
2018-01-22T09:48:30.500Z,29.10
2018-01-22T09:49:30.552Z,25.80
2018-01-22T09:50:30.533Z,25.50
2018-01-22T09:51:30.699Z,24.80
2018-01-22T09:52:30.568Z,25.50
2018-01-22T09:53:30.682Z,24.70
2018-01-22T09:54:30.600Z,24.90
2018-01-22T09:55:30.619Z,40.80
2018-01-22T09:56:30.633Z,28.90
2018-01-22T09:57:30.655Z,51.70
2018-01-22T09:58:30.667Z,49.70
2018-01-22T09:59:30.731Z,29.80
2018-01-22T10:00:30.706Z,24.90
2018-01-22T10:01:30.717Z,23.70
2018-01-22T10:02:30.733Z,22.20
2018-01-22T10:03:30.749Z,23.10
2018-01-22T10:04:30.766Z,22.80
2018-01-22T10:05:30.783Z,21.50
2018-01-22T10:06:30.800Z,21.40
2018-01-22T10:07:30.817Z,20.10
2018-01-22T10:08:30.845Z,21.00
2018-01-22T10:09:30.854Z,21.90
2018-01-22T10:10:30.867Z,21.70
2018-01-22T10:11:30.883Z,20.10
2018-01-22T10:12:30.901Z,20.30
2018-01-22T10:13:31.118Z,21.40
2018-01-22T10:14:30.935Z,19.60
2018-01-22T10:15:30.950Z,20.00
2018-01-22T10:16:30.968Z,19.00
2018-01-22T10:17:30.985Z,19.90
2018-01-22T10:18:31.002Z,19.00
2018-01-22T10:19:31.020Z,19.80
2018-01-22T10:20:31.035Z,18.60
2018-01-22T10:21:31.053Z,18.60
2018-01-22T10:22:31.069Z,18.60
2018-01-22T10:23:31.085Z,18.90
2018-01-22T10:24:31.253Z,18.80
2018-01-22T10:25:31.125Z,18.70
2018-01-22T10:26:31.140Z,18.30
2018-01-22T10:27:31.153Z,18.90
2018-01-22T10:28:31.177Z,18.70
2018-01-22T10:29:31.187Z,19.40
2018-01-22T10:30:31.206Z,16.60
2018-01-22T10:31:31.221Z,17.40
2018-01-22T10:32:31.238Z,17.50
2018-01-22T10:33:31.257Z,16.70
2018-01-22T10:34:31.276Z,17.40
2018-01-22T10:35:31.289Z,18.00
2018-01-22T10:36:31.307Z,16.20
2018-01-22T10:37:31.324Z,17.60
2018-01-22T10:38:31.341Z,16.30
2018-01-22T10:39:31.357Z,17.30
2018-01-22T10:40:31.375Z,17.30
2018-01-22T10:41:31.392Z,18.00
2018-01-22T10:42:31.408Z,17.00
2018-01-22T10:43:31.432Z,17.10
2018-01-22T10:44:31.442Z,16.40
2018-01-22T10:45:31.459Z,17.00
2018-01-22T10:46:31.477Z,16.80
2018-01-22T10:47:31.493Z,16.40
2018-01-22T10:48:31.510Z,17.90
2018-01-22T10:49:31.527Z,17.20
2018-01-22T10:50:31.544Z,16.70
2018-01-22T10:51:31.560Z,18.30
2018-01-22T10:52:31.577Z,17.00
2018-01-22T10:53:31.594Z,18.70
2018-01-22T10:54:31.641Z,19.00
2018-01-22T10:55:31.627Z,19.50
2018-01-22T10:56:31.644Z,18.60
2018-01-22T10:57:31.662Z,19.80
2018-01-22T10:58:31.678Z,22.50
2018-01-22T10:59:31.695Z,19.50
2018-01-22T11:00:31.862Z,20.60
2018-01-22T11:01:31.730Z,19.30
2018-01-22T11:02:31.746Z,20.30
2018-01-22T11:03:31.762Z,20.30
2018-01-22T11:04:31.780Z,21.50
2018-01-22T11:05:31.796Z,20.20
2018-01-22T11:06:31.814Z,20.80
2018-01-22T11:07:31.832Z,22.40
2018-01-22T11:08:31.850Z,22.10
2018-01-22T11:09:31.867Z,25.40
2018-01-22T11:10:31.883Z,23.80
2018-01-22T11:11:31.904Z,25.10
2018-01-22T11:12:32.017Z,22.20
2018-01-22T11:13:31.933Z,24.30
2018-01-22T11:14:31.949Z,23.00
2018-01-22T11:15:32.321Z,23.90
2018-01-22T11:16:31.980Z,24.20
2018-01-22T11:17:31.999Z,25.50
2018-01-22T11:18:32.041Z,30.70
2018-01-22T11:19:32.032Z,25.20
2018-01-22T11:20:32.052Z,26.00
2018-01-22T11:21:32.066Z,28.00
2018-01-22T11:22:32.084Z,29.20
2018-01-22T11:23:32.101Z,30.80
2018-01-22T11:24:32.117Z,25.90
2018-01-22T11:25:32.135Z,26.40
2018-01-22T11:26:32.167Z,26.40
2018-01-22T11:27:32.177Z,29.50
2018-01-22T11:28:32.186Z,28.20
2018-01-22T11:29:32.280Z,27.60
2018-01-22T11:30:32.227Z,26.60
2018-01-22T11:31:32.236Z,28.60
2018-01-22T11:32:32.256Z,28.00
2018-01-22T11:33:32.267Z,27.40
2018-01-22T11:34:32.285Z,28.40
2018-01-22T11:35:32.300Z,28.50
2018-01-22T11:36:32.318Z,29.30
2018-01-22T11:37:32.336Z,27.40
2018-01-22T11:38:32.352Z,27.60
2018-01-22T11:39:32.368Z,27.60
2018-01-22T11:40:32.386Z,30.60
2018-01-22T11:41:32.402Z,30.50
2018-01-22T11:42:32.419Z,29.90
2018-01-22T11:43:32.435Z,28.20
2018-01-22T11:44:32.454Z,28.70
2018-01-22T11:45:32.469Z,28.60
2018-01-22T11:46:32.487Z,29.60
2018-01-22T11:47:32.502Z,29.90
2018-01-22T11:48:32.520Z,31.50
2018-01-22T11:49:32.537Z,29.80
2018-01-22T11:50:32.554Z,27.60
2018-01-22T11:51:32.570Z,28.40
2018-01-22T11:52:32.587Z,28.10
2018-01-22T11:53:32.604Z,28.00
2018-01-22T11:54:32.621Z,25.40
2018-01-22T11:55:32.637Z,28.60
2018-01-22T11:56:32.654Z,26.60
2018-01-22T11:57:32.671Z,27.90
2018-01-22T11:58:32.688Z,27.30
2018-01-22T11:59:32.705Z,28.20
2018-01-22T12:00:32.872Z,28.40
2018-01-22T12:01:32.791Z,28.00
2018-01-22T12:02:32.756Z,27.50
2018-01-22T12:03:32.773Z,28.40
2018-01-22T12:04:32.790Z,27.60
2018-01-22T12:05:32.807Z,28.60
2018-01-22T12:06:32.828Z,26.80
2018-01-22T12:07:32.842Z,27.70
2018-01-22T12:08:32.857Z,27.80
2018-01-22T12:09:32.876Z,27.60
2018-01-22T12:10:32.892Z,27.00
2018-01-22T12:11:32.908Z,27.60
2018-01-22T12:12:32.926Z,27.70
2018-01-22T12:13:32.944Z,30.60
2018-01-22T12:14:32.960Z,28.10
2018-01-22T12:15:33.027Z,29.60
2018-01-22T12:16:32.994Z,28.70
2018-01-22T12:17:33.012Z,28.10
2018-01-22T12:18:33.031Z,27.20
2018-01-22T12:19:33.045Z,27.20
2018-01-22T12:20:33.066Z,25.80
2018-01-22T12:21:33.081Z,26.60
2018-01-22T12:22:33.097Z,25.70
2018-01-22T12:23:33.114Z,25.40
2018-01-22T12:24:33.131Z,24.60
2018-01-22T12:25:33.199Z,24.90
2018-01-22T12:26:33.166Z,25.90
2018-01-22T12:27:33.182Z,26.30
2018-01-22T12:28:33.199Z,24.50
2018-01-22T12:29:33.217Z,25.20
2018-01-22T12:30:33.235Z,23.60
2018-01-22T12:31:33.251Z,26.30
2018-01-22T12:32:33.269Z,25.70
2018-01-22T12:33:33.286Z,25.40
2018-01-22T12:34:33.305Z,22.90
2018-01-22T12:35:33.319Z,24.00
2018-01-22T12:36:33.340Z,24.40
2018-01-22T12:37:33.504Z,24.60
2018-01-22T12:38:33.371Z,22.30
2018-01-22T12:39:33.388Z,23.30
2018-01-22T12:40:33.406Z,23.30
2018-01-22T12:41:33.423Z,23.80
2018-01-22T12:42:33.440Z,22.80
2018-01-22T12:43:33.457Z,21.40
2018-01-22T12:44:33.474Z,21.30
2018-01-22T12:45:33.492Z,21.00
2018-01-22T12:46:33.509Z,24.00
2018-01-22T12:47:33.526Z,20.80
2018-01-22T12:48:33.547Z,21.80
2018-01-22T12:49:33.565Z,21.40
2018-01-22T12:50:33.578Z,21.50
2018-01-22T12:51:33.595Z,22.40
2018-01-22T12:52:33.612Z,21.70
2018-01-22T12:53:33.631Z,19.70
2018-01-22T12:54:33.650Z,20.10
2018-01-22T12:55:33.665Z,20.30
2018-01-22T12:56:33.682Z,19.90
2018-01-22T12:57:33.700Z,19.90
2018-01-22T12:58:33.717Z,19.40
2018-01-22T12:59:33.735Z,19.00
2018-01-22T13:00:33.752Z,18.80